Terminal Aerodrome Forecast
Issued by NWS

Home | Current Version | Previous Version | Graphics & Text | Print | Product List | Glossary On
Versions: 1 2 3 4 5 6 7 8 9 10 11 12 13
000
FTUS45 KRIW 290500
TAFBPI
TAF
KBPI 290527Z 2906/3006 33007KT P6SM SCT090
     FM290800 VRB04KT P6SM FEW110
     FM292000 32010KT P6SM VCTS SCT080CB BKN120
     FM300300 VRB05KT P6SM VCSH BKN110=

USA.gov is the U.S. government's official web portal to all federal, state and local government web resources and services.